createdAt,value
2023-02-13T00:00:47.580Z,14.93
2023-02-13T00:03:45.508Z,17.15
2023-02-13T00:06:15.458Z,19.25
2023-02-13T00:08:51.464Z,17.40
2023-02-13T00:11:23.875Z,20.33
2023-02-13T00:13:52.670Z,18.65
2023-02-13T00:16:22.293Z,19.00
2023-02-13T00:18:54.935Z,22.35
2023-02-13T00:21:26.927Z,35.37
2023-02-13T00:23:58.072Z,41.65
2023-02-13T00:26:31.577Z,30.73
2023-02-13T00:29:03.770Z,30.55
2023-02-13T00:31:35.865Z,24.50
2023-02-13T00:34:07.982Z,21.45
2023-02-13T00:36:39.524Z,34.67
2023-02-13T00:39:10.395Z,19.23
2023-02-13T00:41:46.058Z,18.00
2023-02-13T00:44:17.517Z,17.23
2023-02-13T00:46:49.899Z,20.48
2023-02-13T00:49:23.557Z,15.27
2023-02-13T00:52:04.266Z,18.20
2023-02-13T00:54:36.285Z,18.85
2023-02-13T00:57:06.580Z,18.98
2023-02-13T00:59:39.646Z,16.23
2023-02-13T01:02:14.300Z,18.73
2023-02-13T01:04:44.570Z,20.70
2023-02-13T01:07:16.794Z,18.55
2023-02-13T01:09:47.545Z,18.98
2023-02-13T01:12:54.109Z,18.52
2023-02-13T01:15:26.657Z,16.10
2023-02-13T01:18:08.444Z,23.90
2023-02-13T01:20:41.892Z,19.02
2023-02-13T01:23:13.549Z,14.48
2023-02-13T01:25:46.456Z,14.95
2023-02-13T01:28:18.706Z,18.50
2023-02-13T01:31:02.995Z,29.52
2023-02-13T01:33:36.555Z,15.75
2023-02-13T01:36:11.310Z,37.72
2023-02-13T01:38:51.104Z,26.50
2023-02-13T01:41:22.715Z,20.50
2023-02-13T01:43:56.295Z,27.27
2023-02-13T01:46:34.464Z,14.98
2023-02-13T01:49:21.848Z,20.35
2023-02-13T01:51:56.887Z,25.98
2023-02-13T01:54:36.614Z,14.77
2023-02-13T01:57:18.436Z,12.40
2023-02-13T02:00:05.493Z,10.45
2023-02-13T02:03:13.793Z,11.05
2023-02-13T02:05:49.702Z,14.27
2023-02-13T02:10:58.414Z,14.32
2023-02-13T02:13:32.320Z,13.02
2023-02-13T02:16:08.573Z,10.68
2023-02-13T02:18:42.702Z,16.15
2023-02-13T02:21:33.166Z,15.55
2023-02-13T02:24:36.100Z,14.65
2023-02-13T02:27:31.203Z,21.23
2023-02-13T02:30:10.659Z,13.82
2023-02-13T02:32:56.145Z,15.80
2023-02-13T02:35:35.131Z,37.53
2023-02-13T02:38:21.208Z,18.08
2023-02-13T02:41:03.081Z,13.05
2023-02-13T02:43:57.157Z,16.65
2023-02-13T02:47:01.265Z,17.85
2023-02-13T02:49:55.015Z,12.90
2023-02-13T02:52:57.788Z,14.38
2023-02-13T02:55:50.534Z,10.63
2023-02-13T02:58:48.667Z,12.68
2023-02-13T03:01:46.313Z,12.60
2023-02-13T03:04:48.832Z,12.15
2023-02-13T03:07:19.583Z,14.63
2023-02-13T03:10:16.933Z,11.63
2023-02-13T03:13:08.299Z,14.13
2023-02-13T03:16:02.698Z,13.40
2023-02-13T03:18:53.334Z,16.05
2023-02-13T03:22:13.055Z,12.38
2023-02-13T03:25:00.420Z,18.52
2023-02-13T03:28:08.182Z,20.90
2023-02-13T03:30:55.490Z,15.45
2023-02-13T03:33:57.438Z,15.15
2023-02-13T03:36:51.397Z,12.68
2023-02-13T03:39:46.425Z,18.70
2023-02-13T03:42:31.952Z,12.10
2023-02-13T03:45:30.324Z,10.23
2023-02-13T03:48:07.951Z,12.00
2023-02-13T03:50:47.517Z,16.48
2023-02-13T03:53:17.455Z,11.13
2023-02-13T03:56:06.832Z,13.90
2023-02-13T03:58:57.727Z,12.30
2023-02-13T04:01:34.443Z,24.55
2023-02-13T04:04:16.932Z,12.65
2023-02-13T04:07:19.807Z,11.60
2023-02-13T04:09:51.584Z,17.63
2023-02-13T04:12:39.982Z,17.25
2023-02-13T04:15:25.961Z,22.65
2023-02-13T04:18:23.944Z,104.35
2023-02-13T04:20:53.919Z,28.00
2023-02-13T04:23:27.295Z,61.10
2023-02-13T04:25:58.693Z,314.15
2023-02-13T04:28:30.173Z,328.35
2023-02-13T04:31:01.679Z,110.03
2023-02-13T04:33:40.811Z,27.55
2023-02-13T04:36:16.831Z,19.88
2023-02-13T04:38:48.321Z,18.48
2023-02-13T04:41:19.241Z,13.05
2023-02-13T04:43:53.569Z,15.63
2023-02-13T04:49:19.272Z,16.25
2023-02-13T04:51:51.740Z,16.77
2023-02-13T04:54:26.087Z,11.85
2023-02-13T04:56:56.472Z,14.50
2023-02-13T04:59:31.554Z,13.43
2023-02-13T05:02:23.580Z,19.25
2023-02-13T05:04:53.726Z,9.65
2023-02-13T05:07:27.933Z,14.40
2023-02-13T05:09:56.837Z,11.00
2023-02-13T05:12:29.619Z,6.82
2023-02-13T05:15:03.035Z,8.32
2023-02-13T05:17:32.312Z,15.07
2023-02-13T05:20:02.563Z,17.15
2023-02-13T05:22:53.228Z,11.20
2023-02-13T05:25:30.075Z,10.60
2023-02-13T05:28:00.868Z,10.73
2023-02-13T05:30:36.640Z,12.52
2023-02-13T05:33:08.794Z,8.77
2023-02-13T05:35:41.153Z,9.73
2023-02-13T05:38:28.358Z,17.95
2023-02-13T05:41:37.897Z,8.80
2023-02-13T05:44:10.272Z,10.48
2023-02-13T05:46:48.436Z,10.02
2023-02-13T05:49:18.377Z,12.55
2023-02-13T05:51:54.342Z,11.27
2023-02-13T05:57:01.141Z,7.40
2023-02-13T05:59:32.957Z,10.50
2023-02-13T06:02:13.876Z,12.90
2023-02-13T06:04:51.535Z,9.98
2023-02-13T06:07:22.080Z,9.05
2023-02-13T06:09:55.610Z,15.82
2023-02-13T06:12:27.047Z,16.50
2023-02-13T06:14:58.454Z,9.00
2023-02-13T06:17:30.006Z,9.43
2023-02-13T06:20:01.829Z,10.00
2023-02-13T06:22:34.062Z,7.35
2023-02-13T06:25:41.627Z,7.50
2023-02-13T06:28:14.166Z,7.95
2023-02-13T06:30:45.365Z,8.40
2023-02-13T06:33:22.708Z,12.13
2023-02-13T06:35:53.050Z,16.40
2023-02-13T06:39:00.550Z,11.20
2023-02-13T06:45:09.563Z,15.32
2023-02-13T06:47:48.898Z,11.15
2023-02-13T06:50:22.505Z,9.73
2023-02-13T06:52:58.136Z,10.07
2023-02-13T06:55:32.011Z,7.53
2023-02-13T06:58:02.298Z,7.32
2023-02-13T07:00:35.102Z,9.82
2023-02-13T07:03:13.231Z,7.22
2023-02-13T07:05:49.065Z,15.50
2023-02-13T07:08:21.672Z,6.97
2023-02-13T07:10:57.235Z,9.40
2023-02-13T07:13:32.856Z,16.65
2023-02-13T07:16:03.351Z,9.32
2023-02-13T07:18:37.519Z,18.98
2023-02-13T07:21:09.873Z,17.08
2023-02-13T07:23:40.492Z,38.03
2023-02-13T07:26:11.697Z,34.03
2023-02-13T07:28:50.010Z,23.63
2023-02-13T07:31:22.061Z,70.65
2023-02-13T07:33:57.578Z,54.15
2023-02-13T07:36:31.017Z,36.47
2023-02-13T07:39:04.653Z,35.95
2023-02-13T07:41:33.736Z,33.55
2023-02-13T07:44:04.340Z,12.07
2023-02-13T07:46:33.533Z,53.20
2023-02-13T07:49:03.450Z,24.23
2023-02-13T07:51:36.159Z,9.60
2023-02-13T07:54:07.843Z,71.60
2023-02-13T07:56:40.758Z,134.95
2023-02-13T07:59:12.627Z,98.88
2023-02-13T08:01:43.115Z,46.97
2023-02-13T08:04:15.893Z,15.15
2023-02-13T08:06:48.700Z,13.35
2023-02-13T08:09:46.611Z,24.42
2023-02-13T08:12:19.226Z,9.07
2023-02-13T08:14:52.224Z,12.93
2023-02-13T08:17:26.820Z,11.32
2023-02-13T08:20:04.293Z,11.98
2023-02-13T08:22:40.679Z,19.08
2023-02-13T08:25:14.525Z,9.50
2023-02-13T08:27:52.827Z,85.32
2023-02-13T08:30:30.871Z,25.58
2023-02-13T08:33:06.635Z,14.15
2023-02-13T08:35:39.292Z,11.73
2023-02-13T08:38:17.150Z,6.75
2023-02-13T08:40:54.517Z,12.55
2023-02-13T08:43:32.098Z,9.07
2023-02-13T08:46:05.995Z,11.38
2023-02-13T08:48:35.279Z,6.53
2023-02-13T08:51:15.090Z,8.50
2023-02-13T08:53:44.367Z,6.30
2023-02-13T08:56:17.733Z,7.85
2023-02-13T08:58:51.858Z,7.13
2023-02-13T09:01:24.941Z,6.78
2023-02-13T09:04:04.083Z,8.18
2023-02-13T09:06:49.191Z,10.50
2023-02-13T09:09:33.572Z,11.02
2023-02-13T09:12:04.686Z,11.18
2023-02-13T09:14:40.456Z,9.00
2023-02-13T09:17:09.956Z,13.63
2023-02-13T09:19:45.794Z,24.83
2023-02-13T09:22:17.878Z,10.02
2023-02-13T09:24:47.460Z,10.35
2023-02-13T09:27:16.854Z,8.38
2023-02-13T09:29:46.514Z,11.40
2023-02-13T09:32:17.409Z,8.77
2023-02-13T09:34:55.874Z,10.20
2023-02-13T09:37:30.707Z,10.35
2023-02-13T09:40:01.464Z,12.07
2023-02-13T09:42:39.591Z,8.88
2023-02-13T09:45:22.680Z,12.02
2023-02-13T09:47:57.162Z,10.45
2023-02-13T09:50:53.896Z,9.32
2023-02-13T09:53:25.212Z,17.08
2023-02-13T09:56:20.099Z,11.25
2023-02-13T09:59:14.244Z,14.98
2023-02-13T10:01:51.229Z,14.27
2023-02-13T10:05:10.520Z,14.88
2023-02-13T10:08:05.268Z,11.05
2023-02-13T10:11:03.424Z,9.27
2023-02-13T10:13:48.093Z,11.90
2023-02-13T10:16:40.301Z,12.57
2023-02-13T10:19:33.384Z,52.40
2023-02-13T10:22:15.291Z,30.02
2023-02-13T10:25:43.236Z,43.13
2023-02-13T10:28:34.949Z,16.38
2023-02-13T10:33:59.176Z,13.20
2023-02-13T10:36:44.832Z,9.20
2023-02-13T10:42:44.138Z,11.55
2023-02-13T10:45:57.710Z,13.27
2023-02-13T10:49:25.831Z,28.30
2023-02-13T10:52:28.774Z,12.52
2023-02-13T10:55:31.083Z,25.27
2023-02-13T10:58:35.760Z,35.45
2023-02-13T11:01:42.989Z,44.47
2023-02-13T11:04:23.481Z,17.33
2023-02-13T11:07:01.675Z,16.15
2023-02-13T11:09:42.690Z,20.13
2023-02-13T11:12:40.651Z,17.15
2023-02-13T11:15:34.976Z,9.52
2023-02-13T11:18:30.229Z,8.77
2023-02-13T11:21:22.790Z,6.18
2023-02-13T11:24:03.847Z,6.57
2023-02-13T11:27:23.361Z,5.88
2023-02-13T11:33:21.795Z,7.53
2023-02-13T11:36:09.493Z,5.47
2023-02-13T11:38:56.847Z,9.65
2023-02-13T11:41:29.540Z,9.80
2023-02-13T11:44:06.215Z,8.65
2023-02-13T11:47:04.062Z,21.17
2023-02-13T11:49:39.487Z,8.23
2023-02-13T11:52:28.527Z,9.23
2023-02-13T11:56:00.348Z,14.57
2023-02-13T11:58:36.511Z,11.95
2023-02-13T12:01:28.369Z,16.38
2023-02-13T12:04:28.087Z,7.78
2023-02-13T12:07:03.624Z,6.78
2023-02-13T12:09:37.956Z,6.88
2023-02-13T12:12:35.893Z,7.75
2023-02-13T12:15:31.887Z,9.82
2023-02-13T12:18:09.340Z,8.40
2023-02-13T12:21:11.126Z,12.57
2023-02-13T12:24:14.892Z,6.53
2023-02-13T12:27:05.760Z,5.50
2023-02-13T12:30:12.615Z,6.75
2023-02-13T12:33:17.167Z,5.45
2023-02-13T12:36:26.081Z,6.43
2023-02-13T12:39:03.961Z,5.07
2023-02-13T12:42:11.892Z,8.45
2023-02-13T12:45:17.895Z,6.53
2023-02-13T12:48:21.475Z,6.43
2023-02-13T12:51:21.463Z,8.25
2023-02-13T12:54:35.774Z,14.88
2023-02-13T12:57:48.995Z,5.85
2023-02-13T13:01:37.481Z,13.55
2023-02-13T13:05:16.310Z,6.10
2023-02-13T13:08:35.222Z,9.30
2023-02-13T13:11:30.211Z,7.50
2023-02-13T13:14:09.386Z,5.22
2023-02-13T13:17:03.094Z,6.75
2023-02-13T13:20:04.999Z,8.05
2023-02-13T13:22:55.355Z,12.85
2023-02-13T13:25:50.768Z,10.65
2023-02-13T13:28:30.333Z,7.55
2023-02-13T13:31:27.922Z,6.28
2023-02-13T13:34:28.712Z,6.22
2023-02-13T13:37:45.683Z,10.85
2023-02-13T13:40:54.604Z,7.68
2023-02-13T13:44:04.012Z,31.77
2023-02-13T13:46:46.444Z,13.45
2023-02-13T13:49:47.833Z,6.07
2023-02-13T13:52:41.297Z,8.80
2023-02-13T13:55:57.018Z,21.77
2023-02-13T14:02:37.188Z,12.00
2023-02-13T14:06:15.458Z,22.50
2023-02-13T14:11:47.294Z,8.77
2023-02-13T14:16:01.497Z,6.03
2023-02-13T14:18:54.847Z,10.80
2023-02-13T14:25:01.620Z,20.75
2023-02-13T14:27:48.167Z,8.40
2023-02-13T14:33:32.097Z,8.30
2023-02-13T14:36:30.106Z,7.90
2023-02-13T14:39:30.916Z,9.77
2023-02-13T14:42:03.722Z,16.15
2023-02-13T14:44:54.236Z,14.30
2023-02-13T14:48:02.329Z,23.70
2023-02-13T14:51:05.992Z,9.80
2023-02-13T15:05:13.282Z,15.77
2023-02-13T15:08:16.348Z,41.60
2023-02-13T15:10:48.068Z,41.22
2023-02-13T15:16:29.194Z,18.40
2023-02-13T15:19:07.042Z,29.63
2023-02-13T15:21:50.588Z,23.17
2023-02-13T15:24:33.059Z,15.25
2023-02-13T15:27:06.726Z,17.90
2023-02-13T15:29:55.297Z,10.95
2023-02-13T15:32:37.133Z,20.80
2023-02-13T15:35:23.038Z,15.20
2023-02-13T15:37:53.052Z,23.77
2023-02-13T15:40:32.639Z,11.43
2023-02-13T15:43:03.924Z,16.55
2023-02-13T15:53:00.757Z,14.43
2023-02-13T16:02:06.334Z,35.20
2023-02-13T16:04:38.435Z,15.40
2023-02-13T16:07:12.744Z,24.48
2023-02-13T16:09:43.174Z,16.10
2023-02-13T16:12:38.558Z,18.35
2023-02-13T16:15:20.329Z,16.60
2023-02-13T16:17:57.013Z,11.57
2023-02-13T16:26:04.022Z,14.13
2023-02-13T16:28:48.588Z,15.20
2023-02-13T16:31:56.740Z,13.15
2023-02-13T16:41:02.084Z,10.05
2023-02-13T16:43:58.051Z,8.77
2023-02-13T16:47:16.638Z,9.00
2023-02-13T16:52:12.594Z,11.70
2023-02-13T17:00:43.772Z,9.82
2023-02-13T17:04:00.043Z,10.85
2023-02-13T17:07:42.012Z,9.00
2023-02-13T17:13:27.146Z,22.20
2023-02-13T17:16:36.889Z,21.30
2023-02-13T17:19:14.669Z,19.02
2023-02-13T17:32:30.997Z,19.92
2023-02-13T17:38:51.848Z,43.85
2023-02-13T17:45:39.536Z,8.25
2023-02-13T17:52:20.869Z,10.55
2023-02-13T17:55:16.037Z,11.15
2023-02-13T17:58:08.315Z,12.27
2023-02-13T18:00:36.471Z,25.00
2023-02-13T18:03:08.812Z,9.63
2023-02-13T18:05:37.131Z,13.73
2023-02-13T18:08:10.905Z,25.70
2023-02-13T18:10:47.406Z,12.90
2023-02-13T18:13:17.411Z,11.90
2023-02-13T18:15:46.838Z,9.70
2023-02-13T18:18:39.645Z,11.25
2023-02-13T18:21:10.958Z,11.98
2023-02-13T18:23:42.596Z,11.07
2023-02-13T18:30:55.043Z,12.35
2023-02-13T18:33:24.665Z,11.55
2023-02-13T18:36:01.650Z,17.23
2023-02-13T18:38:31.806Z,15.77
2023-02-13T18:41:04.746Z,33.28
2023-02-13T18:43:36.024Z,19.15
2023-02-13T18:46:14.989Z,25.30
2023-02-13T18:48:48.906Z,36.47
2023-02-13T18:51:17.211Z,38.05
2023-02-13T18:53:47.893Z,23.90
2023-02-13T18:56:19.655Z,18.20
2023-02-13T18:58:48.947Z,14.35
2023-02-13T19:01:21.282Z,13.32
2023-02-13T19:04:01.073Z,10.13
2023-02-13T19:06:34.121Z,9.85
2023-02-13T19:09:04.494Z,15.18
2023-02-13T19:11:34.489Z,15.50
2023-02-13T19:14:03.980Z,18.90
2023-02-13T19:16:34.594Z,57.53
2023-02-13T19:19:13.100Z,21.00
2023-02-13T19:21:45.420Z,35.25
2023-02-13T19:24:24.362Z,35.70
2023-02-13T19:26:55.134Z,17.75
2023-02-13T19:29:23.718Z,12.57
2023-02-13T19:31:56.198Z,27.17
2023-02-13T19:34:25.567Z,23.42
2023-02-13T19:36:58.858Z,21.05
2023-02-13T19:39:27.265Z,12.43
2023-02-13T19:41:57.317Z,12.25
2023-02-13T19:44:29.216Z,13.77
2023-02-13T19:47:07.703Z,17.92
2023-02-13T19:50:19.954Z,22.13
2023-02-13T19:52:53.813Z,25.98
2023-02-13T19:55:25.883Z,27.38
2023-02-13T19:58:02.374Z,11.30
2023-02-13T20:00:34.822Z,12.25
2023-02-13T20:03:05.519Z,42.60
2023-02-13T20:05:49.188Z,33.72
2023-02-13T20:08:22.617Z,57.70
2023-02-13T20:10:52.196Z,18.25
2023-02-13T20:13:41.733Z,14.27
2023-02-13T20:16:15.792Z,10.95
2023-02-13T20:18:50.443Z,56.35
2023-02-13T20:21:27.372Z,23.90
2023-02-13T20:26:46.838Z,20.30
2023-02-13T20:29:22.109Z,18.63
2023-02-13T20:32:05.978Z,20.98
2023-02-13T20:34:59.853Z,85.60
2023-02-13T20:37:43.029Z,22.05
2023-02-13T20:40:22.419Z,106.93
2023-02-13T20:43:13.852Z,26.88
2023-02-13T20:46:28.020Z,63.45
2023-02-13T20:49:06.985Z,21.30
2023-02-13T20:51:37.276Z,55.35
2023-02-13T20:54:30.985Z,26.80
2023-02-13T20:57:21.324Z,32.55
2023-02-13T20:59:53.291Z,16.08
2023-02-13T21:02:34.899Z,39.03
2023-02-13T21:05:15.563Z,20.45
2023-02-13T21:07:49.181Z,13.20
2023-02-13T21:10:33.910Z,14.63
2023-02-13T21:13:09.778Z,15.90
2023-02-13T21:15:43.149Z,47.55
2023-02-13T21:18:13.272Z,18.83
2023-02-13T21:20:53.638Z,19.52
2023-02-13T21:23:33.651Z,24.35
2023-02-13T21:26:10.326Z,15.52
2023-02-13T21:28:42.391Z,33.92
2023-02-13T21:31:19.680Z,20.50
2023-02-13T21:33:49.785Z,33.25
2023-02-13T21:36:19.398Z,23.15
2023-02-13T21:38:52.104Z,12.00
2023-02-13T21:41:24.260Z,15.35
2023-02-13T21:43:57.080Z,36.63
2023-02-13T21:46:31.753Z,15.88
2023-02-13T21:49:05.621Z,10.57
2023-02-13T21:51:46.115Z,23.70
2023-02-13T21:54:18.554Z,17.45
2023-02-13T21:56:51.029Z,12.88
2023-02-13T21:59:22.912Z,15.52
2023-02-13T22:01:58.377Z,13.40
2023-02-13T22:04:32.679Z,14.70
2023-02-13T22:07:07.700Z,16.63
2023-02-13T22:12:09.503Z,17.35
2023-02-13T22:14:43.637Z,15.93
2023-02-13T22:17:13.475Z,15.60
2023-02-13T22:19:51.847Z,25.00
2023-02-13T22:22:25.626Z,18.17
2023-02-13T22:25:01.940Z,15.52
2023-02-13T22:27:37.559Z,12.55
2023-02-13T22:30:09.096Z,18.35
2023-02-13T22:36:21.301Z,17.00
2023-02-13T22:50:53.263Z,57.17
2023-02-13T23:00:49.745Z,16.52
2023-02-13T23:15:24.810Z,12.00
2023-02-13T23:36:05.382Z,13.32
2023-02-13T23:39:47.578Z,12.60
2023-02-13T23:42:47.406Z,15.85
2023-02-13T23:45:57.043Z,14.90
2023-02-13T23:48:55.303Z,15.15
2023-02-13T23:52:05.536Z,15.38
